Time;durP1;ratioP1;P1;durP2;ratioP2;P2;SDS_P1;SDS_P2;PMS_P1;PMS_P2;Temp;Humidity;BMP_temperature;BMP_pressure;BME280_temperature;BME280_humidity;BME280_pressure;Samples;Min_cycle;Max_cycle;Signal;HPM_P1;HPM_P2
2023/04/16 18:24:29;;;;;;;11.35;9.65;;;;;;;12.16;72.22;99645.88;7343913;38;9776297;31
2023/04/16 18:29:50;;;;;;;15.40;9.47;;;;;;;11.96;73.02;99650.75;7465014;39;20430;31
2023/04/16 18:35:22;;;;;;;11.80;9.70;;;;;;;11.88;73.17;99658.81;7426730;39;20252;31
2023/04/16 18:40:58;;;;;;;14.27;9.20;;;;;;;11.77;74.19;99658.25;7340553;39;20648;31
2023/04/16 18:52:06;;;;;;;11.63;9.37;;;;;;;11.65;75.17;99661.22;7351164;38;9482917;31
2023/04/16 19:02:30;;;;;;;12.90;10.17;;;;;;;11.64;74.63;99682.97;7411169;39;20901;31
2023/04/16 19:08:06;;;;;;;13.02;10.27;;;;;;;11.71;74.01;99682.19;7429689;39;21857;31
2023/04/16 19:13:42;;;;;;;12.37;10.67;;;;;;;11.79;73.02;99688.66;7433326;39;21607;31
2023/04/16 19:19:01;;;;;;;11.65;9.80;;;;;;;11.81;73.02;99689.31;7425048;39;20922;31
2023/04/16 19:24:34;;;;;;;11.40;9.63;;;;;;;11.76;72.73;99689.81;7405054;39;20480;31
2023/04/16 19:34:56;;;;;;;11.00;9.43;;;;;;;11.79;73.06;99697.59;7415364;39;20372;31
2023/04/16 19:45:37;;;;;;;10.57;9.47;;;;;;;11.77;72.95;99699.59;7453810;39;20262;31
2023/04/16 19:51:13;;;;;;;11.15;9.75;;;;;;;11.76;73.44;99697.91;7402606;39;20247;31
2023/04/16 19:56:30;;;;;;;15.00;11.53;;;;;;;11.76;73.28;99707.91;7382389;39;20441;31
2023/04/16 20:02:05;;;;;;;17.43;12.77;;;;;;;11.72;74.17;99707.34;7355959;39;20243;31
2023/04/16 20:07:40;;;;;;;18.53;15.13;;;;;;;11.71;74.41;99711.03;7314120;39;20412;31
2023/04/16 20:13:15;;;;;;;19.90;15.77;;;;;;;11.71;75.59;99713.75;7359832;39;20259;31
2023/04/16 20:18:53;;;;;;;18.57;14.77;;;;;;;11.66;75.19;99716.94;7377251;39;20239;31
2023/04/16 20:24:11;;;;;;;17.30;14.20;;;;;;;11.62;75.24;99702.06;7410107;39;20250;31
2023/04/16 20:29:43;;;;;;;20.05;14.85;;;;;;;11.62;75.38;99702.06;7438929;39;20258;31
2023/04/16 20:35:20;;;;;;;20.07;15.90;;;;;;;11.58;76.60;99705.25;7439250;39;20248;31
2023/04/16 20:41:05;;;;;;;20.40;15.87;;;;;;;11.56;75.81;99699.13;7420278;39;20254;31
2023/04/16 20:46:35;;;;;;;19.40;17.10;;;;;;;11.55;76.33;99698.28;7423844;39;21223;31
2023/04/16 20:52:06;;;;;;;20.00;15.90;;;;;;;11.53;77.48;99700.31;7448881;39;20346;31
2023/04/16 20:57:39;;;;;;;22.00;16.60;;;;;;;11.48;78.00;99697.25;7426678;39;21278;31
2023/04/16 21:02:59;;;;;;;21.90;16.00;;;;;;;11.47;77.88;99698.25;7397455;39;20243;31
2023/04/16 21:08:35;;;;;;;20.77;16.10;;;;;;;11.44;77.96;99693.19;7398153;39;20309;31
2023/04/16 21:13:52;;;;;;;22.73;17.50;;;;;;;11.45;77.83;99700.25;7356508;39;20258;31
2023/04/16 21:19:12;;;;;;;20.67;16.40;;;;;;;11.44;77.57;99701.28;7378190;39;20401;31
2023/04/16 21:24:43;;;;;;;21.00;16.63;;;;;;;11.43;77.50;99698.72;7364300;39;20331;31
2023/04/16 21:30:00;;;;;;;21.63;16.97;;;;;;;11.47;78.00;99700.94;7335005;39;20260;31
2023/04/16 21:40:36;;;;;;;23.65;17.85;;;;;;;11.44;78.40;99701.28;7371035;39;21116;31
2023/04/16 21:51:12;;;;;;;26.03;20.37;;;;;;;11.43;78.55;99696.03;7376373;39;20266;31
2023/04/16 21:56:45;;;;;;;22.05;18.50;;;;;;;11.41;78.31;99693.47;7353583;39;20363;31
2023/04/16 22:07:21;;;;;;;23.77;19.37;;;;;;;11.41;78.79;99690.78;7395475;39;21304;31
2023/04/16 22:18:09;;;;;;;;;;;;;;;;;;;;;
2023/04/16 22:23:16;;;;;;;27.40;19.80;;;;;;;11.31;79.58;99681.97;7394897;39;20258;31
2023/04/16 22:28:36;;;;;;;24.00;19.25;;;;;;;11.30;79.43;99685.66;7398330;39;20247;31
2023/04/16 22:34:12;;;;;;;24.63;18.90;;;;;;;11.31;79.59;99681.97;7378983;39;20244;31
2023/04/16 22:39:47;;;;;;;24.30;18.90;;;;;;;11.29;79.51;99683.97;7394756;39;20248;31
2023/04/16 22:45:19;;;;;;;22.25;17.95;;;;;;;11.33;79.74;99690.72;7398764;39;20377;31
2023/04/16 22:50:55;;;;;;;23.13;17.50;;;;;;;11.33;79.19;99682.63;7359695;39;20243;31
2023/04/16 22:56:30;;;;;;;24.00;18.37;;;;;;;11.32;79.26;99685.53;7357543;39;20263;31
2023/04/16 23:02:05;;;;;;;21.10;16.80;;;;;;;11.26;79.70;99678.91;7355006;39;20239;31
2023/04/16 23:07:36;;;;;;;23.15;17.40;;;;;;;11.27;79.38;99681.44;7352616;39;20366;31
2023/04/16 23:18:13;;;;;;;21.15;16.85;;;;;;;11.23;79.37;99680.03;7378153;39;21244;31
2023/04/16 23:23:46;;;;;;;20.40;16.45;;;;;;;11.21;79.47;99681.22;7361604;39;20285;31
2023/04/16 23:34:08;;;;;;;20.57;15.43;;;;;;;11.08;79.92;99691.59;7375796;39;21171;31
2023/04/16 23:44:45;;;;;;;20.53;16.97;;;;;;;10.99;80.33;99682.59;7397195;39;21211;31
2023/04/16 23:55:21;;;;;;;21.00;16.15;;;;;;;10.98;80.40;99699.78;7416617;39;21312;31
